Terminal Aerodrome Forecast
Issued by NWS Louisville, KY

Home | Current Version | Previous Version | Text Only | Print | Product List | Glossary On
Versions: 1 2 3 4 5 6 7 8 9 10 11 12 13 14 15
186
FTUS43 KLMK 191014 AAA
TAFBWG
TAF AMD
KBWG 191014Z 1910/2006 19005KT P6SM BKN008
     FM191500 23012G18KT P6SM VCSH BKN035
     FM192200 24008KT P6SM SCT100=

USA.gov is the U.S. government's official web portal to all federal, state and local government web resources and services.